Flight Track Log - Related Links

Times and Time Zones

All times are in EDT time to prevent confusion due to time zone crossing. See the EJA583 flight status page for this flight to view local times or setup timezone preferences in your user account.

Time Position Orientation Groundspeed Altitude Reporting Facility
EDT Latitude Longitude Course Direction KTS MPH feet Rate Location/Type
Thu 11:52:19 AM 32.7500 -117.2333 312° West 223 257 3,000  Level Southern California TRACON
Thu 11:53:19 AM 32.8000 -117.3000 312° West 259 298 6,600 2,859 Climbing Southern California TRACON
Thu 11:54:27 AM 32.8433 -117.3742 305° West 267 307 9,100 2,077 Climbing Los Angeles Center
Thu 11:55:29 AM 32.8886 -117.4353 311° West 298 343 11,100 2,419 Climbing Los Angeles Center
Thu 11:56:31 AM 32.9589 -117.5311 311° West 315 362 14,100 3,024 Climbing Los Angeles Center
Thu 11:57:34 AM 33.0292 -117.6244 312° West 316 364 17,400 2,832 Climbing Los Angeles Center
Thu 11:58:36 AM 33.0964 -117.6914 320° Northwest 314 361 20,000 2,129 Climbing Los Angeles Center
Thu 11:59:38 AM 33.1633 -117.7633 318° Northwest 320 368 21,800 1,645 Climbing Los Angeles Center
Thu 12:00:40 PM 33.2350 -117.8392 318° Northwest 336 387 23,400 1,548 Climbing Los Angeles Center
Thu 12:01:42 PM 33.3083 -117.9161 319° Northwest 348 400 25,000 1,258 Climbing Los Angeles Center
Thu 12:02:44 PM 33.4053 -118.0058 322° Northwest 369 425 26,000 1,016 Climbing Los Angeles Center
Thu 12:03:46 PM 33.5097 -117.9950 North 384 442 27,100 1,104 Climbing Los Angeles Center
Thu 12:04:49 PM 33.6122 -117.9578 17° North 387 445 28,300 919 Climbing Los Angeles Center
Thu 12:05:50 PM 33.6939 -117.9292 16° North 386 444 29,000 339 Climbing Los Angeles Center
Thu 12:06:53 PM 33.8231 -117.8811 17° North 406 467 29,000  Level Los Angeles Center
Thu 12:07:55 PM 33.9350 -117.8406 17° North 420 483 29,000  Level Los Angeles Center
Thu 12:08:57 PM 34.0669 -117.7897 18° North 417 480 29,000  Level Los Angeles Center
Thu 12:09:59 PM 34.1511 -117.6908 44° Northeast 420 483 29,000  Level Los Angeles Center
Thu 12:11:01 PM 34.2297 -117.5833 48° Northeast 425 489 29,000  Level Los Angeles Center
Thu 12:12:04 PM 34.3089 -117.4767 48° Northeast 427 491 29,000  Level Los Angeles Center
Thu 12:13:06 PM 34.3900 -117.3653 49° Northeast 424 488 29,000  Level Los Angeles Center
Thu 12:14:08 PM 34.4833 -117.2375 48° Northeast 425 489 29,000  Level Los Angeles Center
Thu 12:15:10 PM 34.5611 -117.1306 49° Northeast 425 489 29,000  Level Los Angeles Center
Thu 12:16:12 PM 34.6383 -117.0236 49° Northeast 425 489 29,000  Level Los Angeles Center
Thu 12:17:14 PM 34.7167 -116.9167 48° Northeast 426 490 29,000  Level Los Angeles Center
Thu 12:18:17 PM 34.7942 -116.8092 49° Northeast 426 490 29,000  Level Los Angeles Center
Thu 12:19:19 PM 34.8883 -116.6794 48° Northeast 427 491 29,000 -629 Level Los Angeles Center
Thu 12:20:21 PM 34.9653 -116.5714 49° Northeast 426 490 27,700 -1,694 Descending Los Angeles Center
Thu 12:21:23 PM 35.0486 -116.4678 45° Northeast 427 491 25,500 -1,790 Descending Los Angeles Center
Thu 12:22:25 PM 35.1306 -116.3650 46° Northeast 425 489 24,000 -1,694 Descending Los Angeles Center
Thu 12:23:27 PM 35.2108 -116.2647 46° Northeast 419 482 22,000 -1,935 Descending Los Angeles Center
Thu 12:24:29 PM 35.3033 -116.1483 46° Northeast 404 465 20,000 -1,645 Descending Los Angeles Center
Thu 12:25:31 PM 35.3797 -116.0522 46° Northeast 396 456 18,600 -1,392 Descending Los Angeles Center
Thu 12:26:34 PM 35.4536 -115.9561 47° Northeast 392 451 17,100 -1,500 Descending Los Angeles Center
Thu 12:27:27 PM 35.5314 -115.8664 43° Northeast 391 450 15,700 -1,452 Descending Los Angeles Center
Thu 12:27:36 PM 35.5342 -115.8550 73° East 389 448 15,600 -1,279 Descending Los Angeles Center
Thu 12:28:28 PM 35.5989 -115.7789 44° Northeast 358 412 14,400 -1,258 Descending Los Angeles Center
Thu 12:28:38 PM 35.6044 -115.7672 60° Northeast 364 419 14,300 -1,180 Descending Los Angeles Center
Thu 12:29:29 PM 35.6614 -115.6981 45° Northeast 326 375 13,200 -1,161 Descending Los Angeles Center
Thu 12:29:40 PM 35.6664 -115.6889 56° Northeast 327 376 13,100 -179 Descending Los Angeles Center
Thu 12:30:36 PM 35.7325 -115.6064 45° Northeast 322 371 13,000 -97 Descending Los Angeles Center
Thu 12:30:42 PM 35.7381 -115.5992 47° Northeast 323 372 13,000  Level Los Angeles Center
Thu 12:31:37 PM 35.8136 -115.5725 16° North 308 354 13,000  Level Los Angeles Center
Thu 12:31:44 PM 35.8217 -115.5719 North 314 361 13,000  Level Los Angeles Center
Thu 12:32:38 PM 35.9011 -115.5681 North 309 356 13,000  Level Los Angeles Center
Thu 12:32:46 PM 35.9133 -115.5658 North 309 356 13,000  Level Los Angeles Center
Thu 12:33:32 PM 35.9736 -115.5339 23° Northeast 317 365 13,000 -194 Level Los Angeles Center
Thu 12:33:48 PM 35.9831 -115.5147 59° Northeast 316 364 12,800 -1,200 Descending Los Angeles Center
Thu 12:34:27 PM 36.0086 -115.4456 65° Northeast 323 372 11,900 -1,143 Descending Los Angeles Center
Thu 12:34:51 PM 36.0172 -115.4181 69° East 313 360 11,600 -1,343 Descending Los Angeles Center
Thu 12:35:34 PM 36.0281 -115.3356 81° East 293 337 10,400 -1,258 Descending Los Angeles Center
Thu 12:35:53 PM 36.0261 -115.3197 99° East 307 353 10,300 -984 Descending Los Angeles Center
Thu 12:36:35 PM 36.0197 -115.2372 95° East 282 325 9,400 -1,161 Descending Los Angeles Center
Thu 12:36:55 PM 36.0183 -115.2050 93° East 283 326 9,100 -787 Descending Los Angeles Center
Thu 12:37:36 PM 36.0156 -115.1483 93° East 248 285 8,600 -677 Descending Los Angeles Center
Thu 12:37:57 PM 36.0128 -115.1203 97° East 254 292 8,400 -545 Descending Los Angeles Center
Thu 12:38:31 PM 36.0097 -115.0811 95° East 208 239 8,100 -880 Descending Los Angeles Center
Thu 12:39:12 PM 36.0258 -115.0464 60° Northeast 211 243 7,300 -1,500 Descending Los Angeles Center
Thu 12:39:31 PM 36.0464 -115.0317 30° Northeast 208 239 6,600 -975 Descending Los Angeles Center
Thu 12:40:32 PM 36.0986 -115.0036 23° Northeast 203 234 6,000 -686 Descending Los Angeles Center
Thu 12:41:16 PM 36.1286 -114.9981 North 209 241 5,400 -1,164 Descending Los Angeles Center
Thu 12:41:39 PM 36.1394 -115.0328 291° West 192 221 4,700 -1,462 Descending Los Angeles Center
Thu 12:42:34 PM 36.1394 -115.0914 270° West 183 211 3,500 -1,129 Descending Los Angeles Center
Thu 12:43:20 PM 36.1325 -115.1272 257° West 173 199 2,800 -885 Descending Los Angeles Center
Thu 12:43:35 PM 36.1258 -115.1386 234° Southwest 143 165 2,600 -484 Descending Los Angeles Center
Thu 12:44:22 PM 36.0978 -115.1539 204° Southwest 152 175 2,300 -383 Descending Los Angeles Center
Thu 12:46:00 PM 36.0801 -115.1523 270° West  Level Estimated

Login

Don't have an account? Register now (free) for customized features, flight alerts, and more!